Search for airport 
image banner adimage banner adimage banner ad
image banner ad

50CA - St Mary Medical Center

Located in Long Beach, United States

ICAO - 50CA, IATA -

Data provided by Airmate  

General information

Coordinates: N33°46'50" W118°11'9"
Elevation is 174 feet MSL.
Magnetic variation is 14° East
View others Airports in California

Operational data

Special qualification required
Current time UTC:
Current local time:
METAR: KLGB 141053Z AUTO 00000KT 9SM CLR 17/15 A2989 RMK AO2 SLP122 T01720150
TAF: KLGB 140930Z 1410/1506 VRB03KT 4SM HZ SKC FM141200 14006KT 5SM BR OVC009 FM141700 18006KT P6SM SCT012 FM142000 20010KT P6SM SKC FM142300 30012KT P6SM SKC
View NOTAMs / SUP AIP / TFR affecting this airport [VIEW]
Communications frequencies: [VIEW]

Runways:

Airport contact information

Address: Long Beach United States

Satellite view of 50CA